createdAt,value
2018-01-11T00:01:44.117Z,31.42
2018-01-11T00:04:11.813Z,32.70
2018-01-11T00:06:38.732Z,32.88
2018-01-11T00:09:05.668Z,29.52
2018-01-11T00:11:33.366Z,30.90
2018-01-11T00:14:00.352Z,29.02
2018-01-11T00:16:27.295Z,29.98
2018-01-11T00:18:54.232Z,32.83
2018-01-11T00:21:21.140Z,30.77
2018-01-11T00:23:48.108Z,30.95
2018-01-11T00:26:15.047Z,30.08
2018-01-11T00:28:41.984Z,30.30
2018-01-11T00:31:08.931Z,32.08
2018-01-11T00:33:35.882Z,29.42
2018-01-11T00:36:02.802Z,30.73
2018-01-11T00:38:29.724Z,29.00
2018-01-11T00:40:57.434Z,29.67
2018-01-11T00:43:24.322Z,29.65
2018-01-11T00:45:52.021Z,30.00
2018-01-11T00:48:18.942Z,28.60
2018-01-11T00:50:46.645Z,28.15
2018-01-11T00:53:13.595Z,30.55
2018-01-11T00:55:40.696Z,30.23
2018-01-11T00:58:07.608Z,28.70
2018-01-11T01:00:34.539Z,31.23
2018-01-11T01:03:01.452Z,31.70
2018-01-11T01:05:28.406Z,29.20
2018-01-11T01:07:55.342Z,30.50
2018-01-11T01:10:22.268Z,29.35
2018-01-11T01:12:50.122Z,31.00
2018-01-11T01:15:17.818Z,30.40
2018-01-11T01:17:44.924Z,29.70
2018-01-11T01:20:13.632Z,29.30
2018-01-11T01:25:24.840Z,29.83
2018-01-11T01:27:51.752Z,27.83
2018-01-11T01:30:19.461Z,29.05
2018-01-11T01:32:46.369Z,27.02
2018-01-11T01:35:14.082Z,29.70
2018-01-11T01:37:41.015Z,30.40
2018-01-11T01:40:07.925Z,27.92
2018-01-11T01:42:34.870Z,26.85
2018-01-11T01:45:01.785Z,27.33
2018-01-11T01:47:28.702Z,29.40
2018-01-11T01:49:55.644Z,28.85
2018-01-11T01:52:22.553Z,28.40
2018-01-11T01:54:49.497Z,28.15
2018-01-11T01:57:16.409Z,26.87
2018-01-11T01:59:43.333Z,27.60
2018-01-11T02:02:10.265Z,27.23
2018-01-11T02:04:37.223Z,28.83
2018-01-11T02:07:04.171Z,27.55
2018-01-11T02:09:31.084Z,25.80
2018-01-11T02:11:58.021Z,25.73
2018-01-11T02:14:24.936Z,25.65
2018-01-11T02:16:52.626Z,26.75
2018-01-11T02:19:19.553Z,27.58
2018-01-11T02:21:46.468Z,28.23
2018-01-11T02:24:13.380Z,27.70
2018-01-11T02:26:40.315Z,26.25
2018-01-11T02:29:07.225Z,29.27
2018-01-11T02:31:34.921Z,27.02
2018-01-11T02:34:01.829Z,27.48
2018-01-11T02:36:28.748Z,27.17
2018-01-11T02:38:55.681Z,26.00
2018-01-11T02:41:22.606Z,26.67
2018-01-11T02:43:49.517Z,25.95
2018-01-11T02:46:16.440Z,25.50
2018-01-11T02:48:44.125Z,27.10
2018-01-11T02:51:11.052Z,23.52
2018-01-11T02:53:38.728Z,25.37
2018-01-11T02:56:06.517Z,24.00
2018-01-11T02:58:33.425Z,23.50
2018-01-11T03:01:01.135Z,24.33
2018-01-11T03:03:28.048Z,26.17
2018-01-11T03:05:54.978Z,27.23
2018-01-11T03:08:22.653Z,23.90
2018-01-11T03:10:49.582Z,25.85
2018-01-11T03:13:16.491Z,24.00
2018-01-11T03:15:43.748Z,25.30
2018-01-11T03:18:10.661Z,22.50
2018-01-11T03:20:37.591Z,25.00
2018-01-11T03:23:04.497Z,25.98
2018-01-11T03:25:32.264Z,23.40
2018-01-11T03:27:59.952Z,25.05
2018-01-11T03:30:26.882Z,23.00
2018-01-11T03:32:53.796Z,25.15
2018-01-11T03:35:20.726Z,25.60
2018-01-11T03:37:47.634Z,23.42
2018-01-11T03:40:14.556Z,24.60
2018-01-11T03:42:42.228Z,24.33
2018-01-11T03:45:09.153Z,25.30
2018-01-11T03:47:36.836Z,23.00
2018-01-11T03:50:03.776Z,22.90
2018-01-11T03:52:30.692Z,24.48
2018-01-11T03:54:57.620Z,23.25
2018-01-11T03:57:25.293Z,24.85
2018-01-11T03:59:52.224Z,24.45
2018-01-11T04:02:19.907Z,23.12
2018-01-11T04:04:46.830Z,24.65
2018-01-11T04:07:15.419Z,23.50
2018-01-11T04:09:43.104Z,24.75
2018-01-11T04:12:10.012Z,23.83
2018-01-11T04:14:37.708Z,25.17
2018-01-11T04:17:04.614Z,24.60
2018-01-11T04:19:31.537Z,25.70
2018-01-11T04:21:58.452Z,22.60
2018-01-11T04:24:25.378Z,23.15
2018-01-11T04:26:53.047Z,22.10
2018-01-11T04:29:20.776Z,22.58
2018-01-11T04:31:47.683Z,24.77
2018-01-11T04:34:14.608Z,24.60
2018-01-11T04:36:41.512Z,22.08
2018-01-11T04:39:08.436Z,23.58
2018-01-11T04:41:35.356Z,23.92
2018-01-11T04:44:02.287Z,25.00
2018-01-11T04:46:29.196Z,23.30
2018-01-11T04:48:56.112Z,23.75
2018-01-11T04:51:23.039Z,24.00
2018-01-11T04:53:50.893Z,24.17
2018-01-11T04:56:17.805Z,25.88
2018-01-11T04:58:44.725Z,23.70
2018-01-11T05:01:12.625Z,25.85
2018-01-11T05:03:40.317Z,23.10
2018-01-11T05:06:07.253Z,23.77
2018-01-11T05:08:34.184Z,24.02
2018-01-11T05:11:01.099Z,22.50
2018-01-11T05:13:28.020Z,21.83
2018-01-11T05:15:54.928Z,24.35
2018-01-11T05:18:22.800Z,21.50
2018-01-11T05:20:49.708Z,22.30
2018-01-11T05:23:17.408Z,23.30
2018-01-11T05:25:44.334Z,21.70
2018-01-11T05:28:11.270Z,20.95
2018-01-11T05:30:38.945Z,22.70
2018-01-11T05:33:05.872Z,21.15
2018-01-11T05:35:33.547Z,22.02
2018-01-11T05:38:00.478Z,21.58
2018-01-11T05:40:27.398Z,21.42
2018-01-11T05:42:55.086Z,21.92
2018-01-11T05:45:22.000Z,20.02
2018-01-11T05:47:48.929Z,21.60
2018-01-11T05:50:16.605Z,22.05
2018-01-11T05:52:43.532Z,22.73
2018-01-11T05:55:10.441Z,23.45
2018-01-11T05:57:37.368Z,20.50
2018-01-11T06:00:04.273Z,19.80
2018-01-11T06:02:31.201Z,21.12
2018-01-11T06:04:58.118Z,21.00
2018-01-11T06:07:25.056Z,18.60
2018-01-11T06:09:52.736Z,20.02
2018-01-11T06:12:23.964Z,19.80
2018-01-11T06:14:50.890Z,22.92
2018-01-11T06:17:17.793Z,20.83
2018-01-11T06:19:44.708Z,20.30
2018-01-11T06:22:12.396Z,20.17
2018-01-11T06:24:39.329Z,19.95
2018-01-11T06:27:06.250Z,20.58
2018-01-11T06:29:33.155Z,18.58
2018-01-11T06:32:00.852Z,19.83
2018-01-11T06:34:27.780Z,18.80
2018-01-11T06:36:54.713Z,17.70
2018-01-11T06:39:21.624Z,19.67
2018-01-11T06:41:48.563Z,20.77
2018-01-11T06:44:16.456Z,19.90
2018-01-11T06:46:44.141Z,19.62
2018-01-11T06:49:11.051Z,20.45
2018-01-11T06:51:37.973Z,20.08
2018-01-11T06:54:04.897Z,20.98
2018-01-11T06:56:31.811Z,18.87
2018-01-11T06:58:58.766Z,20.85
2018-01-11T07:01:25.690Z,20.05
2018-01-11T07:03:52.625Z,20.10
2018-01-11T07:06:20.308Z,21.75
2018-01-11T07:08:47.228Z,20.65
2018-01-11T07:11:14.925Z,18.98
2018-01-11T07:13:41.836Z,20.27
2018-01-11T07:16:09.526Z,19.40
2018-01-11T07:18:36.434Z,20.52
2018-01-11T07:21:03.383Z,19.85
2018-01-11T07:23:31.081Z,21.10
2018-01-11T07:25:58.016Z,22.58
2018-01-11T07:28:24.924Z,19.20
2018-01-11T07:30:51.872Z,20.48
2018-01-11T07:33:19.564Z,20.20
2018-01-11T07:35:46.485Z,20.62
2018-01-11T07:38:14.168Z,20.70
2018-01-11T07:40:41.086Z,19.45
2018-01-11T07:43:08.023Z,19.87
2018-01-11T07:45:34.944Z,21.02
2018-01-11T07:48:01.879Z,25.25
2018-01-11T07:50:28.794Z,23.30
2018-01-11T07:52:56.485Z,22.45
2018-01-11T07:55:23.392Z,22.27
2018-01-11T07:57:52.182Z,21.00
2018-01-11T08:00:19.115Z,22.15
2018-01-11T08:02:46.080Z,22.17
2018-01-11T08:05:12.996Z,22.10
2018-01-11T08:07:39.915Z,23.80
2018-01-11T08:10:06.826Z,20.75
2018-01-11T08:12:33.807Z,20.70
2018-01-11T08:15:00.712Z,22.98
2018-01-11T08:17:27.632Z,21.70
2018-01-11T08:19:55.324Z,23.70
2018-01-11T08:22:22.264Z,22.37
2018-01-11T08:24:49.172Z,22.00
2018-01-11T08:27:16.124Z,21.05
2018-01-11T08:29:43.053Z,24.12
2018-01-11T08:32:09.979Z,22.23
2018-01-11T08:34:36.891Z,22.83
2018-01-11T08:37:03.830Z,25.77
2018-01-11T08:39:30.739Z,22.62
2018-01-11T08:41:57.661Z,22.02
2018-01-11T08:44:24.568Z,23.62
2018-01-11T08:46:51.507Z,22.48
2018-01-11T08:49:18.872Z,25.30
2018-01-11T08:51:45.820Z,25.48
2018-01-11T08:54:12.744Z,24.67
2018-01-11T08:56:40.433Z,26.37
2018-01-11T08:59:07.361Z,27.95
2018-01-11T09:01:34.284Z,29.37
2018-01-11T09:04:01.964Z,31.40
2018-01-11T09:06:28.905Z,30.40
2018-01-11T09:08:55.850Z,28.65
2018-01-11T09:11:22.784Z,29.17
2018-01-11T09:13:49.717Z,29.58
2018-01-11T09:16:17.407Z,31.08
2018-01-11T09:18:44.320Z,32.40
2018-01-11T09:21:11.249Z,33.88
2018-01-11T09:23:38.169Z,33.28
2018-01-11T09:26:05.104Z,36.95
2018-01-11T09:28:35.197Z,33.97
2018-01-11T09:31:02.115Z,32.90
2018-01-11T09:33:29.023Z,35.72
2018-01-11T09:35:55.940Z,39.42
2018-01-11T09:38:22.860Z,39.03
2018-01-11T09:40:50.548Z,37.10
2018-01-11T09:43:17.456Z,32.08
2018-01-11T09:45:45.175Z,38.70
2018-01-11T09:48:12.103Z,40.08
2018-01-11T09:50:39.031Z,34.50
2018-01-11T09:53:06.350Z,39.50
2018-01-11T09:55:33.296Z,34.88
2018-01-11T09:58:00.210Z,31.65
2018-01-11T10:00:27.133Z,31.85
2018-01-11T10:02:54.049Z,29.00
2018-01-11T10:05:21.744Z,29.15
2018-01-11T10:07:48.664Z,27.73
2018-01-11T10:10:15.595Z,28.52
2018-01-11T10:12:43.280Z,28.90
2018-01-11T10:15:10.208Z,29.10
2018-01-11T10:17:37.901Z,28.83
2018-01-11T10:20:04.858Z,27.33
2018-01-11T10:22:31.769Z,27.55
2018-01-11T10:24:58.686Z,27.95
2018-01-11T10:27:25.588Z,28.40
2018-01-11T10:29:53.272Z,29.80
2018-01-11T10:32:20.176Z,29.95
2018-01-11T10:34:47.100Z,31.25
2018-01-11T10:37:14.950Z,31.50
2018-01-11T10:39:42.640Z,32.45
2018-01-11T10:42:09.548Z,32.90
2018-01-11T10:44:36.471Z,31.75
2018-01-11T10:47:03.385Z,34.83
2018-01-11T10:49:30.308Z,34.47
2018-01-11T10:51:57.231Z,37.97
2018-01-11T10:54:24.936Z,42.20
2018-01-11T10:56:51.844Z,43.13
2018-01-11T10:59:19.538Z,48.15
2018-01-11T11:01:46.453Z,43.55
2018-01-11T11:04:14.150Z,46.78
2018-01-11T11:06:41.086Z,53.75
2018-01-11T11:09:08.012Z,48.67
2018-01-11T11:11:34.924Z,55.78
2018-01-11T11:14:01.865Z,48.25
2018-01-11T11:16:28.775Z,50.17
2018-01-11T11:18:55.707Z,49.70
2018-01-11T11:21:22.627Z,55.73
2018-01-11T11:23:51.228Z,52.72
2018-01-11T11:26:18.144Z,53.20
2018-01-11T11:28:45.838Z,48.50
2018-01-11T11:31:12.744Z,50.47
2018-01-11T11:33:39.669Z,48.10
2018-01-11T11:36:06.572Z,45.88
2018-01-11T11:38:33.501Z,46.95
2018-01-11T11:41:00.407Z,44.60
2018-01-11T11:43:27.343Z,45.05
2018-01-11T11:45:54.268Z,46.33
2018-01-11T11:48:21.196Z,46.67
2018-01-11T11:50:48.113Z,50.20
2018-01-11T11:53:15.806Z,50.65
2018-01-11T11:55:42.713Z,49.60
2018-01-11T11:58:10.413Z,48.40
2018-01-11T12:00:37.326Z,51.78
2018-01-11T12:03:05.016Z,49.72
2018-01-11T12:05:31.935Z,48.05
2018-01-11T12:07:59.637Z,52.40
2018-01-11T12:10:26.553Z,51.80
2018-01-11T12:12:53.482Z,50.00
2018-01-11T12:15:20.396Z,49.08
2018-01-11T12:17:47.325Z,52.15
2018-01-11T12:20:14.244Z,50.40
2018-01-11T12:22:41.164Z,54.77
2018-01-11T12:25:08.077Z,52.33
2018-01-11T12:27:35.021Z,61.37
2018-01-11T12:30:01.941Z,55.45
2018-01-11T12:32:28.873Z,53.70
2018-01-11T12:34:56.548Z,49.28
2018-01-11T12:37:23.485Z,50.30
2018-01-11T12:39:50.397Z,48.50
2018-01-11T12:42:17.321Z,56.37
2018-01-11T12:44:44.234Z,52.60
2018-01-11T12:47:11.152Z,55.12
2018-01-11T12:49:38.073Z,53.70
2018-01-11T12:52:04.995Z,55.25
2018-01-11T12:54:31.910Z,59.17
2018-01-11T12:56:58.844Z,53.35
2018-01-11T12:59:25.781Z,46.67
2018-01-11T13:01:53.536Z,46.90
2018-01-11T13:04:21.232Z,49.08
2018-01-11T13:06:48.164Z,48.83
2018-01-11T13:09:15.097Z,47.13
2018-01-11T13:11:42.801Z,49.90
2018-01-11T13:14:09.759Z,47.33
2018-01-11T13:16:36.740Z,44.92
2018-01-11T13:19:04.440Z,44.50
2018-01-11T13:21:31.383Z,42.75
2018-01-11T13:23:58.344Z,41.40
2018-01-11T13:26:25.299Z,45.90
2018-01-11T13:28:52.217Z,41.63
2018-01-11T13:31:19.164Z,42.50
2018-01-11T13:33:46.073Z,40.33
2018-01-11T13:36:13.034Z,42.75
2018-01-11T13:38:40.014Z,38.53
2018-01-11T13:41:06.962Z,38.05
2018-01-11T13:43:34.769Z,39.15
2018-01-11T13:46:01.710Z,34.90
2018-01-11T13:48:29.597Z,33.25
2018-01-11T13:50:56.560Z,31.35
2018-01-11T13:53:24.517Z,30.37
2018-01-11T13:55:51.474Z,26.83
2018-01-11T13:58:18.413Z,25.88
2018-01-11T14:00:45.372Z,22.65
2018-01-11T14:03:12.287Z,24.58
2018-01-11T14:05:39.238Z,25.35
2018-01-11T14:08:06.318Z,23.45
2018-01-11T14:10:33.284Z,22.77
2018-01-11T14:13:00.212Z,21.85
2018-01-11T14:15:27.148Z,25.05
2018-01-11T14:17:54.089Z,22.27
2018-01-11T14:20:21.038Z,21.83
2018-01-11T14:22:47.980Z,19.92
2018-01-11T14:25:14.936Z,21.02
2018-01-11T14:27:41.857Z,18.90
2018-01-11T14:30:08.792Z,20.85
2018-01-11T14:32:35.715Z,18.80
2018-01-11T14:35:03.441Z,17.00
2018-01-11T14:37:31.122Z,17.17
2018-01-11T14:39:58.056Z,15.65
2018-01-11T14:42:24.975Z,16.95
2018-01-11T14:44:52.719Z,16.27
2018-01-11T14:47:19.646Z,16.48
2018-01-11T14:49:47.347Z,17.17
2018-01-11T14:52:14.273Z,17.20
2018-01-11T14:54:41.198Z,15.15
2018-01-11T14:57:09.092Z,16.02
2018-01-11T14:59:36.005Z,14.95
2018-01-11T15:02:02.941Z,16.10
2018-01-11T15:04:29.852Z,17.55
2018-01-11T15:06:57.548Z,14.73
2018-01-11T15:09:24.497Z,18.80
2018-01-11T15:11:51.414Z,16.58
2018-01-11T15:14:18.341Z,15.90
2018-01-11T15:16:46.016Z,15.95
2018-01-11T15:19:12.932Z,17.92
2018-01-11T15:21:40.609Z,18.12
2018-01-11T15:24:07.557Z,18.10
2018-01-11T15:26:35.233Z,19.15
2018-01-11T15:29:02.156Z,17.00
2018-01-11T15:31:29.828Z,18.92
2018-01-11T15:33:56.749Z,19.40
2018-01-11T15:36:23.656Z,20.90
2018-01-11T15:38:50.609Z,20.35
2018-01-11T15:41:17.536Z,20.25
2018-01-11T15:43:44.456Z,20.42
2018-01-11T15:46:11.368Z,20.27
2018-01-11T15:48:38.300Z,21.40
2018-01-11T15:51:05.217Z,21.73
2018-01-11T15:53:32.149Z,22.05
2018-01-11T15:55:59.074Z,23.55
2018-01-11T15:58:26.014Z,24.25
2018-01-11T16:00:52.929Z,24.90
2018-01-11T16:03:19.849Z,25.92
2018-01-11T16:05:46.781Z,27.40
2018-01-11T16:08:13.710Z,28.00
2018-01-11T16:10:40.620Z,28.45
2018-01-11T16:13:07.572Z,28.62
2018-01-11T16:15:34.486Z,33.83
2018-01-11T16:18:02.211Z,29.98
2018-01-11T16:20:29.125Z,34.08
2018-01-11T16:22:56.056Z,30.98
2018-01-11T16:25:23.797Z,29.50
2018-01-11T16:27:50.720Z,29.42
2018-01-11T16:30:17.642Z,27.52
2018-01-11T16:32:45.322Z,27.37
2018-01-11T16:35:12.249Z,25.35
2018-01-11T16:37:39.974Z,22.15
2018-01-11T16:40:06.900Z,21.80
2018-01-11T16:42:33.830Z,22.77
2018-01-11T16:45:00.758Z,18.55
2018-01-11T16:47:28.650Z,20.80
2018-01-11T16:49:55.562Z,18.12
2018-01-11T16:52:23.304Z,20.83
2018-01-11T16:54:50.326Z,20.60
2018-01-11T16:57:17.315Z,21.73
2018-01-11T16:59:44.271Z,19.85
2018-01-11T17:02:11.983Z,24.92
2018-01-11T17:04:38.964Z,18.70
2018-01-11T17:09:45.044Z,21.42
2018-01-11T17:12:12.753Z,19.08
2018-01-11T17:14:39.697Z,19.33
2018-01-11T17:17:06.634Z,21.25
2018-01-11T17:19:33.560Z,20.17
2018-01-11T17:22:00.560Z,18.77
2018-01-11T17:24:27.496Z,19.40
2018-01-11T17:26:54.432Z,20.15
2018-01-11T17:29:21.369Z,19.20
2018-01-11T17:31:48.288Z,19.45
2018-01-11T17:34:15.239Z,19.10
2018-01-11T17:36:42.157Z,19.50
2018-01-11T17:39:09.085Z,18.80
2018-01-11T17:41:36.014Z,19.98
2018-01-11T17:44:02.977Z,21.90
2018-01-11T17:46:29.901Z,21.25
2018-01-11T17:48:56.845Z,22.55
2018-01-11T17:51:27.518Z,23.02
2018-01-11T17:53:55.212Z,24.95
2018-01-11T17:56:22.148Z,29.20
2018-01-11T17:58:49.090Z,27.27
2018-01-11T18:01:16.030Z,27.48
2018-01-11T18:03:42.938Z,30.80
2018-01-11T18:06:10.662Z,30.70
2018-01-11T18:08:37.584Z,31.08
2018-01-11T18:11:04.664Z,39.10
2018-01-11T18:13:31.903Z,33.63
2018-01-11T18:15:58.823Z,33.75
2018-01-11T18:18:25.753Z,33.60
2018-01-11T18:20:54.468Z,33.83
2018-01-11T18:23:21.418Z,35.00
2018-01-11T18:25:48.342Z,36.15
2018-01-11T18:28:15.287Z,36.42
2018-01-11T18:30:42.241Z,37.20
2018-01-11T18:33:09.175Z,38.28
2018-01-11T18:35:36.129Z,35.58
2018-01-11T18:38:03.071Z,36.13
2018-01-11T18:40:30.005Z,38.53
2018-01-11T18:42:56.919Z,37.60
2018-01-11T18:45:23.875Z,39.28
2018-01-11T18:47:50.789Z,36.35
2018-01-11T18:50:18.153Z,40.08
2018-01-11T18:52:45.153Z,39.17
2018-01-11T18:55:12.090Z,37.15
2018-01-11T18:57:39.045Z,37.40
2018-01-11T19:00:06.010Z,37.55
2018-01-11T19:02:32.988Z,38.92
2018-01-11T19:04:59.965Z,36.42
2018-01-11T19:07:28.852Z,37.65
2018-01-11T19:09:55.776Z,37.80
2018-01-11T19:12:22.778Z,38.85
2018-01-11T19:14:49.693Z,36.75
2018-01-11T19:17:16.632Z,38.22
2018-01-11T19:19:43.548Z,38.92
2018-01-11T19:22:11.321Z,39.72
2018-01-11T19:24:40.014Z,38.83
2018-01-11T19:27:07.721Z,38.50
2018-01-11T19:29:34.686Z,40.00
2018-01-11T19:32:02.542Z,39.05
2018-01-11T19:34:29.517Z,37.58
2018-01-11T19:36:56.515Z,40.92
2018-01-11T19:39:23.485Z,39.65
2018-01-11T19:41:50.480Z,38.85
2018-01-11T19:44:17.413Z,40.03
2018-01-11T19:46:45.106Z,40.17
2018-01-11T19:49:12.151Z,38.45
2018-01-11T19:51:39.164Z,39.22
2018-01-11T19:54:07.876Z,39.85
2018-01-11T19:56:34.817Z,37.25
2018-01-11T19:59:01.773Z,40.63
2018-01-11T20:01:28.732Z,39.65
2018-01-11T20:03:55.664Z,36.83
2018-01-11T20:06:22.649Z,35.38
2018-01-11T20:08:49.601Z,36.75
2018-01-11T20:11:17.318Z,41.58
2018-01-11T20:13:44.243Z,35.22
2018-01-11T20:16:11.181Z,36.15
2018-01-11T20:18:38.865Z,37.25
2018-01-11T20:21:09.222Z,42.80
2018-01-11T20:23:36.142Z,37.42
2018-01-11T20:26:03.072Z,36.90
2018-01-11T20:28:30.027Z,35.15
2018-01-11T20:30:56.992Z,41.33
2018-01-11T20:33:24.924Z,43.38
2018-01-11T20:35:51.880Z,38.78
2018-01-11T20:38:18.801Z,39.08
2018-01-11T20:40:46.495Z,39.30
2018-01-11T20:43:13.433Z,40.05
2018-01-11T20:45:41.416Z,39.72
2018-01-11T20:48:08.348Z,38.70
2018-01-11T20:50:35.283Z,40.92
2018-01-11T20:53:02.208Z,42.97
2018-01-11T20:55:29.904Z,40.90
2018-01-11T20:57:56.822Z,41.42
2018-01-11T21:00:23.768Z,40.38
2018-01-11T21:02:50.689Z,43.87
2018-01-11T21:05:17.645Z,43.72
2018-01-11T21:07:45.684Z,41.28
2018-01-11T21:10:12.649Z,41.92
2018-01-11T21:12:39.540Z,42.97
2018-01-11T21:15:06.465Z,43.33
2018-01-11T21:17:33.397Z,43.05
2018-01-11T21:20:02.304Z,42.85
2018-01-11T21:22:29.237Z,38.10
2018-01-11T21:24:56.924Z,43.58
2018-01-11T21:27:23.845Z,44.25
2018-01-11T21:29:52.536Z,43.38
2018-01-11T21:32:19.511Z,46.88
2018-01-11T21:34:46.447Z,41.10
2018-01-11T21:37:13.353Z,39.58
2018-01-11T21:39:41.052Z,45.78
2018-01-11T21:42:07.972Z,44.80
2018-01-11T21:44:36.678Z,39.28
2018-01-11T21:47:03.593Z,42.15
2018-01-11T21:49:31.285Z,40.90
2018-01-11T21:51:58.201Z,44.35
2018-01-11T21:54:25.894Z,41.40
2018-01-11T21:56:52.955Z,41.67
2018-01-11T21:59:19.899Z,41.67
2018-01-11T22:01:47.720Z,45.33
2018-01-11T22:04:15.420Z,44.03
2018-01-11T22:06:42.364Z,44.72
2018-01-11T22:09:09.272Z,37.72
2018-01-11T22:11:36.951Z,37.67
2018-01-11T22:14:03.851Z,33.83
2018-01-11T22:16:30.772Z,35.13
2018-01-11T22:18:57.716Z,35.20
2018-01-11T22:21:24.737Z,37.25
2018-01-11T22:23:51.668Z,35.08
2018-01-11T22:26:19.353Z,38.17
2018-01-11T22:28:46.270Z,36.75
2018-01-11T22:31:14.039Z,39.08
2018-01-11T22:33:40.990Z,38.38
2018-01-11T22:36:07.984Z,38.65
2018-01-11T22:38:34.917Z,36.65
2018-01-11T22:41:01.824Z,35.67
2018-01-11T22:43:28.805Z,34.10
2018-01-11T22:45:55.724Z,34.40
2018-01-11T22:48:22.657Z,32.90
2018-01-11T22:50:49.609Z,35.72
2018-01-11T22:53:16.624Z,36.05
2018-01-11T22:55:43.566Z,37.05
2018-01-11T22:58:10.483Z,33.25
2018-01-11T23:00:37.468Z,36.35
2018-01-11T23:03:04.401Z,36.70
2018-01-11T23:05:31.340Z,36.72
2018-01-11T23:07:58.300Z,34.88
2018-01-11T23:10:26.011Z,34.47
2018-01-11T23:12:52.940Z,37.70
2018-01-11T23:15:19.844Z,32.85
2018-01-11T23:17:46.771Z,36.33
2018-01-11T23:20:13.696Z,35.47
2018-01-11T23:22:40.644Z,35.63
2018-01-11T23:25:07.695Z,36.83
2018-01-11T23:27:34.664Z,32.50
2018-01-11T23:30:01.591Z,36.88
2018-01-11T23:32:28.551Z,35.58
2018-01-11T23:34:55.456Z,35.58
2018-01-11T23:37:23.227Z,37.58
2018-01-11T23:39:50.136Z,36.88
2018-01-11T23:42:17.081Z,41.45
2018-01-11T23:44:44.014Z,39.55
2018-01-11T23:47:11.701Z,38.22
2018-01-11T23:49:38.715Z,41.65
2018-01-11T23:52:07.482Z,39.03
2018-01-11T23:54:34.414Z,38.38
2018-01-11T23:57:01.332Z,41.15
2018-01-11T23:59:28.299Z,40.97
